Time;durP1;ratioP1;P1;durP2;ratioP2;P2;SDS_P1;SDS_P2;PMS_P1;PMS_P2;Temp;Humidity;BMP_temperature;BMP_pressure;BME280_temperature;BME280_humidity;BME280_pressure;Samples;Min_cycle;Max_cycle;Signal;HPM_P1;HPM_P2
2022/06/02 00:02:22;;;;;;;;;;;10.00;99.90;;;;;;5094843;28;19951;-76
2022/06/02 00:04:56;;;;;;;;;;;10.00;99.90;;;;;;5093821;28;19947;-78
2022/06/02 00:07:30;;;;;;;;;;;9.90;99.90;;;;;;5094695;28;19939;-78
2022/06/02 00:10:02;;;;;;;;;;;9.90;99.90;;;;;;5094145;28;20365;-77
2022/06/02 00:12:30;;;;;;;;;;;9.90;99.90;;;;;;5093665;28;19961;-77
2022/06/02 00:15:02;;;;;;;;;;;9.90;99.90;;;;;;5094519;28;19908;-78
2022/06/02 00:17:37;;;;;;;;;;;9.80;99.90;;;;;;5109200;28;19964;-77
2022/06/02 00:20:08;;;;;;;;;;;9.90;99.90;;;;;;5094214;28;19908;-77
2022/06/02 00:22:52;;;;;;;;;;;9.80;99.90;;;;;;5093580;28;19908;-77
2022/06/02 00:25:20;;;;;;;;;;;9.70;99.90;;;;;;5094231;28;19915;-77
2022/06/02 00:27:51;;;;;;;;;;;9.60;99.90;;;;;;5093349;28;19940;-77
2022/06/02 00:30:28;;;;;;;;;;;9.60;99.90;;;;;;5094389;28;20349;-78
2022/06/02 00:33:12;;;;;;;;;;;9.50;99.90;;;;;;5093888;28;19909;-78
2022/06/02 00:35:44;;;;;;;;;;;9.50;99.90;;;;;;5109068;28;19916;-77
2022/06/02 00:38:24;;;;;;;;;;;9.60;99.90;;;;;;5093729;28;20364;-78
2022/06/02 00:40:51;;;;;;;;;;;9.60;99.90;;;;;;5093065;28;19908;-79
2022/06/02 00:43:29;;;;;;;;;;;9.50;99.90;;;;;;5093983;28;19914;-78
2022/06/02 00:46:08;;;;;;;;;;;9.40;99.90;;;;;;5093465;28;19920;-78
2022/06/02 00:48:45;;;;;;;;;;;9.30;99.90;;;;;;5102305;28;19931;-77
2022/06/02 00:51:13;;;;;;;;;;;9.30;99.90;;;;;;5106330;28;19915;-77
2022/06/02 00:59:45;;;;;;;;;;;9.20;99.90;;;;;;5093128;28;19931;-77
2022/06/02 01:02:11;;;;;;;;;;;9.10;99.90;;;;;;5093445;28;19912;-77
2022/06/02 01:04:40;;;;;;;;;;;9.00;99.90;;;;;;5092791;28;19909;-77
2022/06/02 01:07:05;;;;;;;;;;;8.90;99.90;;;;;;5093227;28;20426;-77
2022/06/02 01:10:09;;;;;;;;;;;9.00;99.90;;;;;;5092845;28;19962;-76
2022/06/02 01:12:50;;;;;;;;;;;9.10;99.90;;;;;;5050181;28;19920;-77
2022/06/02 01:15:21;;;;;;;;;;;8.90;99.90;;;;;;5067495;28;19948;-77
2022/06/02 01:17:47;;;;;;;;;;;8.90;99.90;;;;;;5075646;28;19920;-77
2022/06/02 01:20:25;;;;;;;;;;;8.90;99.90;;;;;;5093263;28;20360;-78
2022/06/02 01:22:58;;;;;;;;;;;8.90;99.90;;;;;;5092431;28;20521;-77
2022/06/02 01:25:42;;;;;;;;;;;8.90;99.90;;;;;;5093101;28;20282;-77
2022/06/02 01:28:10;;;;;;;;;;;8.80;99.90;;;;;;5093189;28;19915;-78
2022/06/02 01:30:51;;;;;;;;;;;8.70;99.90;;;;;;5092831;28;19950;-78
2022/06/02 01:33:26;;;;;;;;;;;8.70;99.90;;;;;;5093023;28;19908;-78
2022/06/02 01:35:54;;;;;;;;;;;8.60;99.90;;;;;;5092327;28;19918;-78
2022/06/02 01:38:27;;;;;;;;;;;8.60;99.90;;;;;;5092665;28;20358;-78
2022/06/02 01:40:56;;;;;;;;;;;8.60;99.90;;;;;;5091999;28;20197;-78
2022/06/02 01:43:24;;;;;;;;;;;8.60;99.90;;;;;;5092966;28;19908;-78
2022/06/02 01:45:50;;;;;;;;;;;8.70;99.90;;;;;;5092789;28;19912;-78
2022/06/02 01:48:19;;;;;;;;;;;8.60;99.90;;;;;;5092636;28;20264;-78
2022/06/02 01:50:47;;;;;;;;;;;8.70;99.90;;;;;;5092261;28;19918;-78
2022/06/02 01:53:18;;;;;;;;;;;8.60;99.90;;;;;;5092959;28;19908;-78
2022/06/02 01:55:43;;;;;;;;;;;8.50;99.90;;;;;;5091981;28;20323;-78
2022/06/02 01:58:27;;;;;;;;;;;8.60;99.90;;;;;;5092616;28;19999;-78
2022/06/02 02:01:03;;;;;;;;;;;8.60;99.90;;;;;;5092049;28;19984;-78
2022/06/02 02:03:38;;;;;;;;;;;8.60;99.90;;;;;;5092888;28;19958;-78
2022/06/02 02:06:06;;;;;;;;;;;8.60;99.90;;;;;;5092432;28;19908;-78
2022/06/02 02:08:41;;;;;;;;;;;8.60;99.90;;;;;;5092739;28;19908;-77
2022/06/02 02:11:09;;;;;;;;;;;8.60;99.90;;;;;;5092661;28;19912;-78
2022/06/02 02:13:56;;;;;;;;;;;8.60;99.90;;;;;;5106591;28;21346;-77
2022/06/02 02:16:39;;;;;;;;;;;8.60;99.90;;;;;;5095903;28;19912;-78
2022/06/02 02:19:23;;;;;;;;;;;8.60;99.90;;;;;;5096581;28;19931;-78
2022/06/02 02:22:03;;;;;;;;;;;8.60;99.90;;;;;;5096058;28;19919;-77
2022/06/02 02:24:47;;;;;;;;;;;8.60;99.90;;;;;;5096093;28;19977;-78
2022/06/02 02:27:16;;;;;;;;;;;8.50;99.90;;;;;;5096488;28;19908;-78
2022/06/02 02:29:53;;;;;;;;;;;8.50;99.90;;;;;;5095722;28;19908;-77
2022/06/02 02:32:22;;;;;;;;;;;8.40;99.90;;;;;;5096280;28;19912;-78
2022/06/02 02:34:59;;;;;;;;;;;8.30;99.90;;;;;;5095816;28;20349;-77
2022/06/02 02:37:36;;;;;;;;;;;8.40;99.90;;;;;;5096226;28;19920;-79
2022/06/02 02:40:12;;;;;;;;;;;8.40;99.90;;;;;;5095503;28;20265;-78
2022/06/02 02:42:37;;;;;;;;;;;8.40;99.90;;;;;;5095193;28;19915;-76
2022/06/02 02:45:07;;;;;;;;;;;8.40;99.90;;;;;;5096147;28;19908;-77
2022/06/02 02:47:37;;;;;;;;;;;8.40;99.90;;;;;;5096102;28;19908;-77
2022/06/02 02:50:19;;;;;;;;;;;8.40;99.90;;;;;;5096374;28;20038;-77
2022/06/02 02:52:47;;;;;;;;;;;8.30;99.90;;;;;;5095491;28;20365;-77
2022/06/02 02:55:18;;;;;;;;;;;8.30;99.90;;;;;;5096078;28;20368;-77
2022/06/02 02:57:46;;;;;;;;;;;8.20;99.90;;;;;;5094999;28;19919;-77
2022/06/02 03:00:14;;;;;;;;;;;8.20;99.90;;;;;;5095598;28;20288;-77
2022/06/02 03:02:45;;;;;;;;;;;8.30;99.90;;;;;;5095298;28;20258;-77
2022/06/02 03:05:27;;;;;;;;;;;8.30;99.90;;;;;;5096140;28;20272;-78
2022/06/02 03:07:58;;;;;;;;;;;8.30;99.90;;;;;;5095152;28;19908;-78
2022/06/02 03:10:35;;;;;;;;;;;8.40;99.90;;;;;;5095895;28;19908;-79
2022/06/02 03:13:01;;;;;;;;;;;8.40;99.90;;;;;;5094662;28;20292;-79
2022/06/02 03:15:27;;;;;;;;;;;8.40;99.90;;;;;;5095453;28;19919;-78
2022/06/02 03:17:52;;;;;;;;;;;8.40;99.90;;;;;;5094873;28;19990;-78
2022/06/02 03:20:19;;;;;;;;;;;8.40;99.90;;;;;;5095470;28;19912;-78
2022/06/02 03:22:50;;;;;;;;;;;8.40;99.90;;;;;;5094897;28;20450;-77
2022/06/02 03:25:19;;;;;;;;;;;8.40;99.90;;;;;;5094961;28;20011;-77
2022/06/02 03:27:49;;;;;;;;;;;8.40;99.90;;;;;;5093208;28;19916;-77
2022/06/02 03:30:18;;;;;;;;;;;8.30;99.90;;;;;;5095530;28;19912;-77
2022/06/02 03:33:02;;;;;;;;;;;8.30;99.90;;;;;;5094699;28;19908;-78
2022/06/02 03:35:31;;;;;;;;;;;8.20;99.90;;;;;;5095123;28;19955;-77
2022/06/02 03:37:57;;;;;;;;;;;8.30;99.90;;;;;;5094365;28;20002;-77
2022/06/02 03:40:22;;;;;;;;;;;8.30;99.90;;;;;;5110927;28;20009;-78
2022/06/02 03:43:06;;;;;;;;;;;8.30;99.90;;;;;;5094244;28;19947;-77
2022/06/02 03:45:50;;;;;;;;;;;8.10;99.90;;;;;;5094752;28;19909;-77
2022/06/02 03:48:19;;;;;;;;;;;8.00;99.90;;;;;;5094988;28;19914;-77
2022/06/02 03:51:03;;;;;;;;;;;7.90;99.90;;;;;;5094089;28;19961;-77
2022/06/02 03:53:47;;;;;;;;;;;8.00;99.90;;;;;;5094544;28;20350;-78
2022/06/02 03:56:15;;;;;;;;;;;7.90;99.90;;;;;;5094523;28;19916;-77
2022/06/02 03:58:52;;;;;;;;;;;7.90;99.90;;;;;;5094169;28;19916;-76
2022/06/02 04:01:29;;;;;;;;;;;7.90;99.90;;;;;;5094769;28;19953;-78
2022/06/02 04:04:12;;;;;;;;;;;8.00;99.90;;;;;;5093961;28;20278;-77
2022/06/02 04:06:38;;;;;;;;;;;7.90;99.90;;;;;;5094688;28;19958;-77
2022/06/02 04:09:15;;;;;;;;;;;7.90;99.90;;;;;;5093965;28;19943;-77
2022/06/02 04:14:51;;;;;;;;;;;7.80;99.90;;;;;;5094330;28;19915;-77
2022/06/02 04:17:40;;;;;;;;;;;7.70;99.90;;;;;;5094041;28;19924;-77
2022/06/02 04:23:15;;;;;;;;;;;7.80;99.90;;;;;;5093552;28;20379;-77
2022/06/02 04:25:59;;;;;;;;;;;7.80;99.90;;;;;;5094195;28;19908;-77
2022/06/02 04:28:50;;;;;;;;;;;7.80;99.90;;;;;;5093336;28;19966;-78
2022/06/02 04:31:34;;;;;;;;;;;7.80;99.90;;;;;;5077707;28;19911;-78
2022/06/02 04:34:05;;;;;;;;;;;7.80;99.90;;;;;;5093515;28;19915;-78
2022/06/02 04:36:59;;;;;;;;;;;7.90;99.90;;;;;;5094008;28;19912;-78
2022/06/02 04:39:26;;;;;;;;;;;7.90;99.90;;;;;;5093652;28;19923;-78
2022/06/02 04:42:00;;;;;;;;;;;7.90;99.90;;;;;;5093230;28;19915;-77
2022/06/02 04:44:35;;;;;;;;;;;7.90;99.90;;;;;;5109428;28;19908;-78
2022/06/02 04:47:03;;;;;;;;;;;7.80;99.90;;;;;;5092817;28;19908;-77
2022/06/02 04:49:43;;;;;;;;;;;7.90;99.90;;;;;;5093809;28;20355;-77
2022/06/02 04:52:15;;;;;;;;;;;7.80;99.90;;;;;;5093602;28;19977;-77
2022/06/02 04:54:46;;;;;;;;;;;7.90;99.90;;;;;;5093474;28;19912;-78
2022/06/02 04:57:19;;;;;;;;;;;8.10;99.90;;;;;;5093418;28;19937;-77
2022/06/02 05:00:03;;;;;;;;;;;8.20;99.90;;;;;;5093462;28;19916;-76
2022/06/02 05:02:29;;;;;;;;;;;8.30;99.90;;;;;;5093303;28;19953;-78
2022/06/02 05:05:12;;;;;;;;;;;8.50;99.90;;;;;;5092430;28;19994;-77
2022/06/02 05:07:38;;;;;;;;;;;8.70;99.90;;;;;;5093520;28;19908;-78
2022/06/02 05:10:22;;;;;;;;;;;8.80;99.90;;;;;;5092838;28;20242;-77
2022/06/02 05:13:00;;;;;;;;;;;9.00;99.90;;;;;;5092622;28;19991;-77
2022/06/02 05:15:31;;;;;;;;;;;9.20;99.90;;;;;;5108946;28;19912;-78
2022/06/02 05:18:03;;;;;;;;;;;9.40;99.90;;;;;;5092377;28;19924;-78
2022/06/02 05:20:28;;;;;;;;;;;9.60;99.90;;;;;;5093223;28;19931;-78
2022/06/02 05:22:57;;;;;;;;;;;9.70;99.90;;;;;;5092716;28;19912;-77
2022/06/02 05:25:41;;;;;;;;;;;9.80;99.90;;;;;;5093532;28;20372;-78
2022/06/02 05:28:06;;;;;;;;;;;9.90;99.90;;;;;;5091244;28;20464;-78
2022/06/02 05:30:58;;;;;;;;;;;10.00;99.90;;;;;;5092526;28;20025;-78
2022/06/02 05:33:23;;;;;;;;;;;10.10;99.90;;;;;;5093136;28;19912;-77
2022/06/02 05:35:58;;;;;;;;;;;10.20;99.90;;;;;;5092404;28;19920;-77
2022/06/02 05:38:26;;;;;;;;;;;10.30;99.90;;;;;;5092780;28;19908;-78
2022/06/02 05:41:10;;;;;;;;;;;10.50;99.90;;;;;;5092592;28;19963;-77
2022/06/02 05:43:38;;;;;;;;;;;10.60;99.90;;;;;;5092905;28;20308;-78
2022/06/02 05:46:04;;;;;;;;;;;10.70;99.90;;;;;;5092310;28;20349;-78
2022/06/02 05:48:36;;;;;;;;;;;10.90;99.90;;;;;;5092758;28;19915;-78
2022/06/02 05:51:02;;;;;;;;;;;11.00;99.90;;;;;;5095253;28;19962;-78
2022/06/02 05:53:27;;;;;;;;;;;11.00;99.90;;;;;;5097113;28;19908;-78
2022/06/02 05:55:53;;;;;;;;;;;11.10;99.90;;;;;;5096477;28;20011;-77
2022/06/02 05:58:31;;;;;;;;;;;11.30;99.90;;;;;;5096740;28;20426;-78
2022/06/02 06:01:11;;;;;;;;;;;11.40;99.90;;;;;;5096445;28;19908;-78
2022/06/02 06:03:46;;;;;;;;;;;11.60;99.90;;;;;;5096947;28;20345;-78
2022/06/02 06:06:12;;;;;;;;;;;11.70;99.90;;;;;;5096689;28;20062;-78
2022/06/02 06:08:57;;;;;;;;;;;11.80;99.90;;;;;;5096676;28;19991;-78
2022/06/02 06:11:43;;;;;;;;;;;11.90;99.90;;;;;;5096378;28;19908;-78
2022/06/02 06:14:15;;;;;;;;;;;12.10;99.90;;;;;;5095663;28;19908;-78
2022/06/02 06:16:52;;;;;;;;;;;12.20;99.90;;;;;;5096358;28;20265;-78
2022/06/02 06:19:37;;;;;;;;;;;12.40;99.90;;;;;;5096355;28;19915;-78
2022/06/02 06:22:05;;;;;;;;;;;12.50;99.90;;;;;;5095999;28;20003;-78
2022/06/02 06:24:33;;;;;;;;;;;12.50;99.90;;;;;;5096530;28;20287;-78
2022/06/02 06:27:04;;;;;;;;;;;12.60;99.90;;;;;;5095843;28;19967;-78
2022/06/02 06:29:49;;;;;;;;;;;12.70;99.90;;;;;;5096350;28;19908;-78
2022/06/02 06:32:18;;;;;;;;;;;12.90;99.90;;;;;;5095535;28;20425;-78
2022/06/02 06:34:46;;;;;;;;;;;13.10;99.90;;;;;;5096158;28;19908;-78
2022/06/02 06:37:17;;;;;;;;;;;13.20;99.90;;;;;;5095303;28;20505;-78
2022/06/02 06:40:09;;;;;;;;;;;13.30;99.90;;;;;;5096102;28;20276;-77
2022/06/02 06:42:57;;;;;;;;;;;13.50;99.90;;;;;;5093606;28;19965;-77
2022/06/02 06:45:46;;;;;;;;;;;13.70;99.90;;;;;;5095652;28;19963;-77
2022/06/02 06:48:23;;;;;;;;;;;13.90;99.90;;;;;;5095128;28;19961;-76
2022/06/02 06:51:01;;;;;;;;;;;14.10;99.90;;;;;;5095679;28;20365;-77
2022/06/02 06:53:32;;;;;;;;;;;14.20;99.90;;;;;;5096993;28;20381;-76
2022/06/02 06:56:17;;;;;;;;;;;14.30;99.90;;;;;;5095322;28;20341;-77
2022/06/02 06:58:48;;;;;;;;;;;14.40;99.90;;;;;;5095795;28;19953;-77
2022/06/02 07:01:28;;;;;;;;;;;14.60;99.90;;;;;;5095082;28;19995;-77
2022/06/02 07:04:00;;;;;;;;;;;14.70;99.90;;;;;;5095325;28;19908;-77
2022/06/02 07:06:37;;;;;;;;;;;14.80;99.90;;;;;;5095308;28;19915;-77
2022/06/02 07:09:09;;;;;;;;;;;14.90;99.90;;;;;;5111249;28;19908;-77
2022/06/02 07:14:24;;;;;;;;;;;15.10;99.90;;;;;;5094776;28;19915;-78
2022/06/02 07:16:55;;;;;;;;;;;15.30;99.90;;;;;;5094799;28;20014;-78
2022/06/02 07:19:24;;;;;;;;;;;15.50;99.90;;;;;;5077163;28;20266;-77
2022/06/02 07:21:51;;;;;;;;;;;15.60;99.90;;;;;;5095397;28;19908;-75
2022/06/02 07:24:22;;;;;;;;;;;15.80;99.90;;;;;;5094722;28;19908;-75
2022/06/02 07:26:57;;;;;;;;;;;15.80;99.90;;;;;;5095281;28;19909;-75
2022/06/02 07:29:34;;;;;;;;;;;15.90;99.90;;;;;;5095104;28;19915;-75
2022/06/02 07:32:03;;;;;;;;;;;16.10;99.90;;;;;;5076419;28;20261;-75
2022/06/02 07:34:32;;;;;;;;;;;16.20;99.90;;;;;;5095113;28;19908;-76
2022/06/02 07:37:04;;;;;;;;;;;16.30;99.90;;;;;;5094335;28;19957;-76
2022/06/02 07:39:36;;;;;;;;;;;16.30;99.90;;;;;;5095061;28;19964;-77
2022/06/02 07:42:31;;;;;;;;;;;16.40;99.90;;;;;;5094186;28;19969;-76
2022/06/02 07:45:15;;;;;;;;;;;16.50;99.90;;;;;;5085439;28;19913;-75
2022/06/02 07:47:58;;;;;;;;;;;16.50;99.90;;;;;;5094303;28;19961;-76
2022/06/02 07:50:32;;;;;;;;;;;16.40;99.90;;;;;;5094746;28;19915;-76
2022/06/02 07:53:07;;;;;;;;;;;16.60;99.90;;;;;;5094495;28;19972;-75
2022/06/02 07:55:57;;;;;;;;;;;16.60;99.90;;;;;;5076444;28;19916;-76
2022/06/02 07:58:23;;;;;;;;;;;16.70;99.90;;;;;;5093873;28;20010;-76
2022/06/02 08:01:03;;;;;;;;;;;16.80;99.90;;;;;;5094022;28;20262;-76
2022/06/02 08:04:01;;;;;;;;;;;16.90;99.90;;;;;;5094608;28;20365;-76
2022/06/02 08:07:05;;;;;;;;;;;16.60;99.90;;;;;;5071298;28;19908;-76
2022/06/02 08:09:40;;;;;;;;;;;16.70;99.90;;;;;;5051857;28;20381;-76
2022/06/02 08:12:11;;;;;;;;;;;16.70;99.90;;;;;;5050855;28;20458;-76
2022/06/02 08:14:55;;;;;;;;;;;16.80;99.90;;;;;;5051339;28;19909;-76
2022/06/02 08:17:30;;;;;;;;;;;17.10;99.90;;;;;;5051114;28;19978;-77
2022/06/02 08:20:15;;;;;;;;;;;17.20;99.90;;;;;;5051756;28;19970;-77
2022/06/02 08:22:43;;;;;;;;;;;17.20;99.90;;;;;;5051591;28;20282;-77
2022/06/02 08:25:11;;;;;;;;;;;17.30;99.90;;;;;;5051420;28;19916;-77
2022/06/02 08:27:48;;;;;;;;;;;17.50;99.90;;;;;;5035089;28;19909;-77
2022/06/02 08:30:16;;;;;;;;;;;17.50;99.90;;;;;;5051134;28;19974;-77
2022/06/02 08:32:50;;;;;;;;;;;17.40;99.90;;;;;;5051485;28;19909;-77
2022/06/02 08:35:33;;;;;;;;;;;17.30;99.90;;;;;;5050694;28;19924;-77
2022/06/02 08:37:58;;;;;;;;;;;17.30;99.90;;;;;;5051376;28;19912;-77
2022/06/02 08:40:36;;;;;;;;;;;17.40;99.90;;;;;;5063030;28;19923;-76
2022/06/02 08:43:15;;;;;;;;;;;17.50;99.90;;;;;;5073008;28;19908;-75
2022/06/02 08:45:59;;;;;;;;;;;17.20;99.90;;;;;;5073440;28;19915;-75
2022/06/02 08:48:37;;;;;;;;;;;17.10;99.90;;;;;;5072820;28;20354;-75
2022/06/02 08:51:03;;;;;;;;;;;16.90;99.90;;;;;;5072970;28;19916;-75
2022/06/02 08:53:47;;;;;;;;;;;16.70;99.90;;;;;;5072007;28;19908;-75
2022/06/02 08:56:31;;;;;;;;;;;16.70;99.90;;;;;;5072409;28;19912;-75
2022/06/02 08:59:02;;;;;;;;;;;16.70;99.90;;;;;;5073402;28;19919;-75
2022/06/02 09:01:28;;;;;;;;;;;16.80;99.90;;;;;;5072861;28;19916;-76
2022/06/02 09:03:55;;;;;;;;;;;16.90;99.90;;;;;;5072689;28;19909;-75
2022/06/02 09:06:39;;;;;;;;;;;17.00;99.90;;;;;;5072538;28;19909;-76
2022/06/02 09:09:34;;;;;;;;;;;17.00;99.90;;;;;;5089393;28;19913;-75
2022/06/02 09:12:02;;;;;;;;;;;17.10;99.90;;;;;;5075083;28;19915;-78
2022/06/02 09:14:43;;;;;;;;;;;16.90;99.90;;;;;;5072324;28;19924;-76
2022/06/02 09:17:23;;;;;;;;;;;16.80;99.90;;;;;;5077410;28;19934;-75
2022/06/02 09:19:54;;;;;;;;;;;16.80;99.90;;;;;;5093396;28;19908;-75
2022/06/02 09:22:20;;;;;;;;;;;16.80;99.90;;;;;;5092637;28;20368;-75
2022/06/02 09:25:06;;;;;;;;;;;16.90;99.90;;;;;;5092993;28;19908;-77
2022/06/02 09:27:52;;;;;;;;;;;17.00;99.90;;;;;;5093240;28;19977;-76
2022/06/02 09:30:19;;;;;;;;;;;17.20;99.90;;;;;;5092341;28;20283;-77
2022/06/02 09:33:33;;;;;;;;;;;17.10;99.90;;;;;;5092659;28;19912;-76
2022/06/02 09:36:00;;;;;;;;;;;17.10;99.90;;;;;;5092955;28;19912;-77
2022/06/02 09:38:34;;;;;;;;;;;17.10;99.90;;;;;;5092259;28;19919;-77
2022/06/02 09:41:16;;;;;;;;;;;17.20;99.90;;;;;;5092833;28;19908;-77
2022/06/02 09:43:41;;;;;;;;;;;17.30;99.90;;;;;;5093256;28;19908;-76
2022/06/02 09:46:25;;;;;;;;;;;17.40;99.90;;;;;;5074288;28;20347;-76
2022/06/02 09:48:51;;;;;;;;;;;17.30;99.90;;;;;;5092718;28;20032;-76
2022/06/02 09:51:19;;;;;;;;;;;17.20;99.90;;;;;;5092210;28;19939;-77
2022/06/02 09:53:58;;;;;;;;;;;17.00;99.90;;;;;;5092815;28;19962;-77
2022/06/02 09:56:35;;;;;;;;;;;16.80;99.90;;;;;;5091870;28;20327;-77
2022/06/02 09:59:01;;;;;;;;;;;16.80;99.90;;;;;;5093170;28;19912;-77
2022/06/02 10:01:45;;;;;;;;;;;16.70;99.90;;;;;;5074025;28;20539;-76
2022/06/02 10:04:23;;;;;;;;;;;16.40;99.90;;;;;;5100315;28;19908;-76
2022/06/02 10:07:07;;;;;;;;;;;16.40;99.90;;;;;;5085968;28;19908;-76
2022/06/02 10:09:49;;;;;;;;;;;16.50;99.90;;;;;;5092107;28;19908;-76
2022/06/02 10:15:20;;;;;;;;;;;16.50;99.90;;;;;;5091863;28;19915;-77
2022/06/02 10:17:52;;;;;;;;;;;16.60;99.90;;;;;;5091473;28;20296;-77
2022/06/02 10:20:29;;;;;;;;;;;16.90;99.90;;;;;;5091548;28;19908;-77
2022/06/02 10:22:55;;;;;;;;;;;17.10;99.90;;;;;;5092120;28;20494;-77
2022/06/02 10:25:26;;;;;;;;;;;17.20;99.90;;;;;;5073435;28;19995;-77
2022/06/02 10:28:11;;;;;;;;;;;17.40;99.90;;;;;;5091642;28;19949;-76
2022/06/02 10:30:36;;;;;;;;;;;17.50;99.90;;;;;;5091576;28;19912;-77
2022/06/02 10:33:02;;;;;;;;;;;17.60;99.90;;;;;;5091826;28;19908;-76
2022/06/02 10:35:33;;;;;;;;;;;17.70;99.90;;;;;;5091410;28;19960;-77
2022/06/02 10:38:08;;;;;;;;;;;17.90;99.90;;;;;;5095397;28;19974;-77
2022/06/02 10:40:54;;;;;;;;;;;18.00;99.90;;;;;;5095733;28;19957;-77
2022/06/02 10:43:36;;;;;;;;;;;18.20;99.90;;;;;;5094965;28;20344;-77
2022/06/02 10:46:20;;;;;;;;;;;18.20;99.90;;;;;;5095454;28;19915;-76
2022/06/02 10:48:54;;;;;;;;;;;18.20;99.90;;;;;;5095848;28;20369;-77
2022/06/02 10:51:39;;;;;;;;;;;18.00;99.90;;;;;;5095196;28;19969;-77
2022/06/02 10:54:10;;;;;;;;;;;18.10;99.90;;;;;;5095939;28;19923;-77
2022/06/02 10:56:47;;;;;;;;;;;18.10;99.90;;;;;;5095710;28;19985;-76
2022/06/02 10:59:33;;;;;;;;;;;18.20;99.90;;;;;;5095083;28;20379;-77
2022/06/02 11:02:08;;;;;;;;;;;18.30;99.90;;;;;;5095707;28;20379;-77
2022/06/02 11:04:46;;;;;;;;;;;18.40;99.90;;;;;;5095525;28;19922;-77
2022/06/02 11:07:12;;;;;;;;;;;18.50;99.90;;;;;;5094979;28;19961;-76
2022/06/02 11:09:37;;;;;;;;;;;18.60;99.90;;;;;;5095634;28;20282;-76
2022/06/02 11:12:18;;;;;;;;;;;18.70;99.90;;;;;;5095602;28;20011;-77
2022/06/02 11:15:02;;;;;;;;;;;18.60;99.90;;;;;;5095207;28;20340;-77
2022/06/02 11:17:33;;;;;;;;;;;18.40;99.90;;;;;;5094574;28;20686;-77
2022/06/02 11:20:14;;;;;;;;;;;18.30;99.90;;;;;;5095296;28;19908;-77
2022/06/02 11:22:58;;;;;;;;;;;18.20;99.90;;;;;;5095151;28;19973;-77
2022/06/02 11:25:30;;;;;;;;;;;18.10;99.90;;;;;;5094672;28;20361;-77
2022/06/02 11:28:14;;;;;;;;;;;17.90;99.90;;;;;;5095283;28;19909;-77
2022/06/02 11:30:39;;;;;;;;;;;17.90;99.90;;;;;;5077033;28;20337;-77
2022/06/02 11:33:14;;;;;;;;;;;17.90;99.90;;;;;;5095154;28;19919;-77
2022/06/02 11:35:45;;;;;;;;;;;17.90;99.90;;;;;;5094755;28;19965;-77
2022/06/02 11:38:29;;;;;;;;;;;17.80;99.90;;;;;;5095039;28;20351;-76
2022/06/02 11:41:03;;;;;;;;;;;17.80;99.90;;;;;;5095066;28;19956;-77
2022/06/02 11:44:04;;;;;;;;;;;17.70;99.90;;;;;;5094293;28;19912;-77
2022/06/02 11:46:44;;;;;;;;;;;17.70;99.90;;;;;;5051708;28;19909;-76
2022/06/02 11:49:28;;;;;;;;;;;17.70;99.90;;;;;;5088951;28;19908;-77
2022/06/02 11:51:56;;;;;;;;;;;17.60;99.90;;;;;;5094736;28;19908;-77
2022/06/02 11:54:37;;;;;;;;;;;17.70;99.90;;;;;;5093710;28;19912;-77
2022/06/02 11:57:05;;;;;;;;;;;17.80;99.90;;;;;;5094668;28;20337;-76
2022/06/02 11:59:43;;;;;;;;;;;17.80;99.90;;;;;;5094119;28;20215;-76
2022/06/02 12:02:23;;;;;;;;;;;17.90;99.90;;;;;;5094972;28;19961;-77
2022/06/02 12:04:58;;;;;;;;;;;17.80;99.90;;;;;;5094556;28;20007;-77
2022/06/02 12:07:59;;;;;;;;;;;18.00;99.90;;;;;;5093837;28;19908;-76
2022/06/02 12:10:33;;;;;;;;;;;18.00;99.90;;;;;;5051279;28;19909;-76
2022/06/02 12:13:11;;;;;;;;;;;17.90;99.90;;;;;;5087572;28;19908;-76
2022/06/02 12:15:55;;;;;;;;;;;17.90;99.90;;;;;;5093727;28;19912;-76
2022/06/02 12:18:39;;;;;;;;;;;17.70;99.90;;;;;;5093254;28;19927;-75
2022/06/02 12:21:07;;;;;;;;;;;17.50;99.90;;;;;;5093041;28;19912;-76
2022/06/02 12:23:45;;;;;;;;;;;17.30;99.90;;;;;;5093280;28;19968;-75
2022/06/02 12:26:17;;;;;;;;;;;17.10;99.90;;;;;;5093973;28;19912;-75
2022/06/02 12:28:49;;;;;;;;;;;17.00;99.90;;;;;;5094174;28;19916;-76
2022/06/02 12:31:20;;;;;;;;;;;16.90;99.90;;;;;;5093803;28;19909;-76
2022/06/02 12:33:46;;;;;;;;;;;16.90;99.90;;;;;;5093744;28;20339;-75
2022/06/02 12:36:18;;;;;;;;;;;16.80;99.90;;;;;;5093728;28;19963;-75
2022/06/02 12:39:02;;;;;;;;;;;16.70;99.90;;;;;;5094025;28;19909;-75
2022/06/02 12:41:33;;;;;;;;;;;16.70;99.90;;;;;;5093306;28;19961;-75
2022/06/02 12:44:17;;;;;;;;;;;16.80;99.90;;;;;;5093756;28;19989;-75
2022/06/02 12:46:52;;;;;;;;;;;16.80;99.90;;;;;;5093438;28;19908;-75
2022/06/02 12:49:29;;;;;;;;;;;16.80;99.90;;;;;;5093155;28;19961;-75
2022/06/02 12:52:22;;;;;;;;;;;16.90;99.90;;;;;;5093722;28;20006;-75
2022/06/02 12:54:47;;;;;;;;;;;16.90;99.90;;;;;;5093790;28;19908;-76
2022/06/02 12:57:26;;;;;;;;;;;17.10;99.90;;;;;;5093500;28;19916;-76
2022/06/02 13:00:13;;;;;;;;;;;17.10;99.90;;;;;;5093276;28;19951;-75
2022/06/02 13:02:38;;;;;;;;;;;17.10;99.90;;;;;;5092859;28;19918;-75
2022/06/02 13:05:23;;;;;;;;;;;17.10;99.90;;;;;;5093396;28;20420;-76
2022/06/02 13:07:51;;;;;;;;;;;17.10;99.90;;;;;;5095487;28;19920;-75
2022/06/02 13:10:23;;;;;;;;;;;17.10;99.90;;;;;;5110126;28;19930;-76
2022/06/02 13:13:11;;;;;;;;;;;17.20;99.90;;;;;;5100852;28;19908;-75
2022/06/02 13:15:37;;;;;;;;;;;17.20;99.90;;;;;;5092310;28;19912;-75
2022/06/02 13:18:14;;;;;;;;;;;17.30;99.90;;;;;;5093057;28;19927;-75
2022/06/02 13:20:58;;;;;;;;;;;17.40;99.90;;;;;;5092364;28;19908;-75
2022/06/02 13:23:34;;;;;;;;;;;17.50;99.90;;;;;;5092136;28;19931;-75
2022/06/02 13:26:09;;;;;;;;;;;17.60;99.90;;;;;;5093110;28;19943;-76
2022/06/02 13:28:55;;;;;;;;;;;17.60;99.90;;;;;;5092476;28;19938;-75
2022/06/02 13:31:33;;;;;;;;;;;17.80;99.90;;;;;;5091473;28;19908;-75
2022/06/02 13:34:17;;;;;;;;;;;17.80;99.90;;;;;;5092990;28;19953;-75
2022/06/02 13:37:01;;;;;;;;;;;17.80;99.90;;;;;;5092592;28;19920;-75
2022/06/02 13:39:45;;;;;;;;;;;17.80;99.90;;;;;;5092617;28;19908;-75
2022/06/02 13:42:13;;;;;;;;;;;17.80;99.90;;;;;;5092637;28;20225;-75
2022/06/02 13:44:48;;;;;;;;;;;17.90;99.90;;;;;;5091840;28;19950;-76
2022/06/02 13:47:32;;;;;;;;;;;18.00;99.90;;;;;;5091241;28;19919;-75
2022/06/02 13:50:09;;;;;;;;;;;18.00;99.90;;;;;;5092610;28;20340;-76
2022/06/02 13:52:51;;;;;;;;;;;18.20;99.90;;;;;;5092224;28;19919;-76
2022/06/02 13:58:23;;;;;;;;;;;18.30;99.90;;;;;;5092937;28;19943;-76
2022/06/02 14:01:07;;;;;;;;;;;18.30;99.90;;;;;;5105315;28;19908;-76
2022/06/02 14:03:33;;;;;;;;;;;18.40;99.90;;;;;;5100175;28;20365;-76
2022/06/02 14:06:07;;;;;;;;;;;18.60;99.90;;;;;;5093127;28;19953;-75
2022/06/02 14:08:42;;;;;;;;;;;18.60;99.90;;;;;;5092305;28;19969;-75
2022/06/02 14:11:29;;;;;;;;;;;18.70;99.90;;;;;;5094306;28;19962;-76
2022/06/02 14:14:18;;;;;;;;;;;18.90;99.90;;;;;;5096964;28;19963;-76
2022/06/02 14:16:43;;;;;;;;;;;19.00;99.90;;;;;;5095784;28;19923;-76
2022/06/02 14:19:12;;;;;;;;;;;19.20;99.90;;;;;;5096758;28;19912;-76
2022/06/02 14:21:44;;;;;;;;;;;19.30;99.90;;;;;;5095890;28;19908;-76
2022/06/02 14:24:10;;;;;;;;;;;19.30;99.90;;;;;;5096726;28;19908;-77
2022/06/02 14:26:54;;;;;;;;;;;19.40;99.90;;;;;;5095877;28;19912;-77
2022/06/02 14:29:35;;;;;;;;;;;19.50;99.90;;;;;;5096338;28;19915;-77
2022/06/02 14:32:23;;;;;;;;;;;19.60;99.90;;;;;;5096269;28;19970;-76
2022/06/02 14:35:08;;;;;;;;;;;19.70;99.90;;;;;;5095961;28;20015;-76
2022/06/02 14:37:39;;;;;;;;;;;19.70;99.90;;;;;;5095291;28;19915;-77
2022/06/02 14:40:11;;;;;;;;;;;19.70;99.90;;;;;;5096200;28;19916;-77
2022/06/02 14:43:05;;;;;;;;;;;19.70;99.90;;;;;;5095574;28;20327;-77
2022/06/02 14:45:50;;;;;;;;;;;19.60;99.90;;;;;;5095415;28;19908;-76
2022/06/02 14:48:18;;;;;;;;;;;19.50;99.90;;;;;;5107121;28;19916;-76
2022/06/02 14:50:53;;;;;;;;;;;19.40;99.90;;;;;;5108413;28;19918;-76
2022/06/02 14:53:37;;;;;;;;;;;19.20;99.90;;;;;;5096165;28;19909;-76
2022/06/02 14:56:22;;;;;;;;;;;19.20;99.90;;;;;;5095877;28;19912;-76
2022/06/02 14:59:25;;;;;;;;;;;19.00;99.90;;;;;;5095339;28;19912;-76
2022/06/02 15:02:09;;;;;;;;;;;18.90;99.90;;;;;;5033076;28;19909;-76
2022/06/02 15:04:51;;;;;;;;;;;18.70;99.90;;;;;;5090585;28;19959;-77
2022/06/02 15:07:28;;;;;;;;;;;18.70;99.90;;;;;;5094463;28;20045;-76
2022/06/02 15:10:12;;;;;;;;;;;18.60;99.90;;;;;;5095858;28;19908;-76
2022/06/02 15:13:10;;;;;;;;;;;18.50;99.90;;;;;;5095068;28;19908;-76
2022/06/02 15:15:44;;;;;;;;;;;18.50;99.90;;;;;;5060759;28;19914;-76
2022/06/02 15:18:28;;;;;;;;;;;18.40;99.90;;;;;;5095250;28;20331;-76
2022/06/02 15:21:12;;;;;;;;;;;18.30;99.90;;;;;;5095439;28;19934;-77
2022/06/02 15:23:56;;;;;;;;;;;18.20;99.90;;;;;;5094925;28;19914;-77
2022/06/02 15:26:29;;;;;;;;;;;18.10;99.90;;;;;;5095038;28;19951;-77
2022/06/02 15:29:13;;;;;;;;;;;18.10;99.90;;;;;;5095105;28;19916;-76
2022/06/02 15:31:51;;;;;;;;;;;18.10;99.90;;;;;;5094616;28;19909;-77
2022/06/02 15:34:17;;;;;;;;;;;18.10;99.90;;;;;;5094840;28;19923;-77